Home > Products > Valid Products > MTR

000
SAUS45 KREV 261257
MTRDRA
METAR KDRA 261252Z AUTO 05007KT 10SM CLR 05/M01 A2993 RMK AO2 SLP122
T00501006 $





000
SAUS45 KREV 261157
MTRDRA
METAR KDRA 261152Z AUTO 03005KT 10SM CLR 05/01 A2990 RMK AO2 SLP111
70010 T00500011 10094 20039 53013 $





000
SAUS45 KREV 261157
MTRDRA
METAR KDRA 261152Z AUTO 03005KT 10SM CLR 05/01 A2990 RMK AO2 SLP111
70010 T00500011 10094 20039 53013 $





000
SAUS45 KREV 261057
MTRDRA
METAR KDRA 261052Z AUTO 09004KT 10SM CLR 05/02 A2988 RMK AO2 SLP105
T00500022 $





000
SAUS45 KREV 261057
MTRDRA
METAR KDRA 261052Z AUTO 09004KT 10SM CLR 05/02 A2988 RMK AO2 SLP105
T00500022 $





000
SAUS45 KREV 260957
MTRDRA
METAR KDRA 260952Z AUTO 36004KT 10SM CLR 06/01 A2987 RMK AO2 SLP090
T00610011 $





000
SAUS45 KREV 260857
MTRDRA
METAR KDRA 260852Z AUTO 06005KT 10SM CLR 06/02 A2986 RMK AO2 SLP088
T00610017 51010 $





000
SAUS45 KREV 260857
MTRDRA
METAR KDRA 260852Z AUTO 06005KT 10SM CLR 06/02 A2986 RMK AO2 SLP088
T00610017 51010 $





000
SAUS45 KREV 260757
MTRDRA
METAR KDRA 260752Z AUTO 05004KT 10SM CLR 07/03 A2985 RMK AO2 SLP085
T00720028 402060067 $





000
SAUS45 KREV 260657
MTRDRA
METAR KDRA 260652Z AUTO 27004KT 10SM CLR 07/03 A2984 RMK AO2 SLP084
T00670033 $





000
SAUS45 KREV 260657
MTRDRA
METAR KDRA 260652Z AUTO 27004KT 10SM CLR 07/03 A2984 RMK AO2 SLP084
T00670033 $





000
SAUS45 KREV 260557
MTRDRA
METAR KDRA 260552Z AUTO 35005KT 10SM CLR 09/03 A2982 RMK AO2 SLP074
60005 T00940028 10122 20094 51026 $





000
SAUS45 KREV 260557
MTRDRA
METAR KDRA 260552Z AUTO 35005KT 10SM CLR 09/03 A2982 RMK AO2 SLP074
60005 T00940028 10122 20094 51026 $





000
SAUS45 KREV 260457
MTRDRA
METAR KDRA 260452Z AUTO 02008KT 10SM CLR 10/03 A2981 RMK AO2 SLP070
T01000028 $





000
SAUS45 KREV 260357
MTRDRA
METAR KDRA 260352Z AUTO 32004KT 10SM FEW085 09/04 A2978 RMK AO2
SLP060 T00940044 $





000
SAUS45 KREV 260257
MTRDRA
METAR KDRA 260252Z AUTO 29003KT 10SM CLR 11/06 A2974 RMK AO2 SLP048
60005 T01060061 55004 $





000
SAUS45 KREV 260257
MTRDRA
METAR KDRA 260252Z AUTO 29003KT 10SM CLR 11/06 A2974 RMK AO2 SLP048
60005 T01060061 55004 $





000
SAUS45 KREV 260157
MTRDRA
METAR KDRA 260152Z AUTO 11007KT 10SM FEW110 12/04 A2972 RMK AO2 PK
WND 04026/0056 WSHFT 0049 RAE09 SLP039 P0002 T01170044 $





000
SAUS45 KREV 260157
MTRDRA
METAR KDRA 260152Z AUTO 11007KT 10SM FEW110 12/04 A2972 RMK AO2 PK
WND 04026/0056 WSHFT 0049 RAE09 SLP039 P0002 T01170044 $





000
SAUS45 KREV 260111
MTRDRA
SPECI KDRA 260106Z AUTO 09011KT 10SM -RA BKN040 OVC095 10/04 A2971
RMK AO2 PK WND 04026/0056 WSHFT 0049 P0002 T01000039 $





000
SAUS45 KREV 260057
MTRDRA
METAR KDRA 260052Z AUTO 05013G17KT 7SM -RA OVC040 09/04 A2975 RMK
AO2 RAB2354 SLP055 P0003 T00940044 $





000
SAUS45 KREV 252357
MTRDRA
METAR KDRA 252352Z AUTO 36005KT 10SM OVC047 10/04 A2975 RMK AO2 PK
WND 01029/2306 RAE46 SLP053 P0004 60005 T01000044 10206 20094 53023
$





000
SAUS45 KREV 252257
MTRDRA
METAR KDRA 252252Z AUTO 03021G27KT 4SM RA FEW042 BKN055 OVC080 10/06
A2973 RMK AO2 PK WND 01037/2231 WSHFT 2226 RAB46 SLP047 P0001
T01000061 $





000
SAUS45 KREV 252248
MTRDRA
SPECI KDRA 252243Z AUTO 01021G29KT 10SM BKN055 BKN070 OVC085 12/02
A2972 RMK AO2 PK WND 01037/2231 WSHFT 2226 PRESRR T01220017 $





000
SAUS45 KREV 252248
MTRDRA
SPECI KDRA 252243Z AUTO 01021G29KT 10SM BKN055 BKN070 OVC085 12/02
A2972 RMK AO2 PK WND 01037/2231 WSHFT 2226 PRESRR T01220017 $





000
SAUS45 KREV 252157
MTRDRA
METAR KDRA 252152Z AUTO 20015G23KT 10SM CLR 20/M02 A2966 RMK AO2 PK
WND 22027/2129 SLP011 T02001022 $





000
SAUS45 KREV 252057
MTRDRA
METAR KDRA 252052Z AUTO 17014G23KT 10SM FEW110 18/M03 A2968 RMK AO2
SLP018 T01781028 58018 $





000
SAUS45 KREV 251957
MTRDRA
METAR KDRA 251952Z AUTO 21013G25KT 10SM CLR 17/M02 A2970 RMK AO2 PK
WND 22030/1916 SLP027 T01721022 $





000
SAUS45 KREV 251957
MTRDRA
METAR KDRA 251952Z AUTO 21013G25KT 10SM CLR 17/M02 A2970 RMK AO2 PK
WND 22030/1916 SLP027 T01721022 $





000
SAUS45 KREV 251857
MTRDRA
METAR KDRA 251852Z AUTO 21018G27KT 10SM CLR 17/M02 A2972 RMK AO2 PK
WND 19031/1817 SLP035 T01671017 $





000
SAUS45 KREV 251857
MTRDRA
METAR KDRA 251852Z AUTO 21018G27KT 10SM CLR 17/M02 A2972 RMK AO2 PK
WND 19031/1817 SLP035 T01671017 $





000
SAUS45 KREV 251757
MTRDRA
METAR KDRA 251752Z AUTO 22021G27KT 10SM CLR 17/M02 A2973 RMK AO2 PK
WND 23029/1722 SLP038 T01671017 10167 20117 56006





000
SAUS45 KREV 251657
MTRDRA
METAR KDRA 251652Z AUTO 22019G24KT 10SM CLR 16/M01 A2974 RMK AO2
SLP039 T01561011





000
SAUS45 KREV 251557
MTRDRA
METAR KDRA 251552Z AUTO 00000KT 10SM CLR 14/01 A2975 RMK AO2 SLP042
T01390011





000
SAUS45 KREV 251458
MTRDRA
METAR KDRA 251452Z AUTO 26003KT 10SM CLR 13/02 A2975 RMK AO2 SLP046
T01280017 58004





000
SAUS45 KREV 251257
MTRDRA
METAR KDRA 251252Z AUTO 24005KT 10SM FEW060 BKN085 BKN100 12/03
A2977 RMK AO2 SLP048 T01170028





000
SAUS45 KREV 251157
MTRDRA
METAR KDRA 251152Z AUTO 34004KT 10SM OVC100 12/03 A2977 RMK AO2
SLP047 T01220033 10156 20117 56008





000
SAUS45 KREV 251157
MTRDRA
METAR KDRA 251152Z AUTO 34004KT 10SM OVC100 12/03 A2977 RMK AO2
SLP047 T01220033 10156 20117 56008





000
SAUS45 KREV 251057
MTRDRA
METAR KDRA 251052Z AUTO 32005KT 10SM FEW080 SCT100 12/03 A2977 RMK
AO2 SLP048 T01170028





000
SAUS45 KREV 251057
MTRDRA
METAR KDRA 251052Z AUTO 32005KT 10SM FEW080 SCT100 12/03 A2977 RMK
AO2 SLP048 T01170028





000
SAUS45 KREV 250957
MTRDRA
METAR KDRA 250952Z AUTO 31004KT 10SM BKN080 13/03 A2978 RMK AO2
SLP052 T01280028





000
SAUS45 KREV 250858
MTRDRA
METAR KDRA 250852Z AUTO 01004KT 10SM OVC080 14/03 A2979 RMK AO2
SLP054 T01390028 50003





000
SAUS45 KREV 250757
MTRDRA
METAR KDRA 250752Z AUTO 00000KT 10SM FEW090 14/02 A2980 RMK AO2
SLP056 T01390022 402390106





000
SAUS45 KREV 250757
MTRDRA
METAR KDRA 250752Z AUTO 00000KT 10SM FEW090 14/02 A2980 RMK AO2
SLP056 T01390022 402390106





000
SAUS45 KREV 250657
MTRDRA
METAR KDRA 250652Z AUTO 32003KT 10SM FEW085 14/02 A2980 RMK AO2
SLP058 T01390022





000
SAUS45 KREV 250657
MTRDRA
METAR KDRA 250652Z AUTO 32003KT 10SM FEW085 14/02 A2980 RMK AO2
SLP058 T01390022





000
SAUS45 KREV 250556
MTRDRA
METAR KDRA 250552Z AUTO 19004KT 10SM CLR 16/05 A2978 RMK AO2 SLP052
T01560050 10217 20156 51017





000
SAUS45 KREV 250556
MTRDRA
METAR KDRA 250552Z AUTO 19004KT 10SM CLR 16/05 A2978 RMK AO2 SLP052
T01560050 10217 20156 51017





000
SAUS45 KREV 250457
MTRDRA
METAR KDRA 250452Z AUTO 10012KT 10SM CLR 16/06 A2978 RMK AO2 SLP051
T01610056





000
SAUS45 KREV 250357
MTRDRA
METAR KDRA 250352Z AUTO 21008KT 10SM SCT100 18/01 A2975 RMK AO2
SLP041 T01780011





000
SAUS45 KREV 250257
MTRDRA
METAR KDRA 250252Z AUTO 22007KT 10SM CLR 18/01 A2973 RMK AO2 SLP035
T01830006 53011





000
SAUS45 KREV 250157
MTRDRA
METAR KDRA 250152Z AUTO 20019G24KT 10SM CLR 21/01 A2971 RMK AO2 PK
WND 19028/0128 SLP027 T02060011





000
SAUS45 KREV 250057
MTRDRA
METAR KDRA 250052Z AUTO 21018G26KT 10SM FEW095 21/02 A2970 RMK AO2
PK WND 20029/0033 SLP026 T02110017





000
SAUS45 KREV 250057
MTRDRA
METAR KDRA 250052Z AUTO 21018G26KT 10SM FEW095 21/02 A2970 RMK AO2
PK WND 20029/0033 SLP026 T02110017





000
SAUS45 KREV 242357
MTRDRA
METAR KDRA 242352Z AUTO 20019G25KT 10SM CLR 22/01 A2969 RMK AO2 PK
WND 21028/2323 SLP023 T02170011 10239 20194 56020





000
SAUS45 KREV 242357
MTRDRA
METAR KDRA 242352Z AUTO 20019G25KT 10SM CLR 22/01 A2969 RMK AO2 PK
WND 21028/2323 SLP023 T02170011 10239 20194 56020





000
SAUS45 KREV 242257
MTRDRA
METAR KDRA 242252Z AUTO 20016G24KT 10SM FEW070 23/02 A2970 RMK AO2
PK WND 18031/2237 SLP023 T02280022





000
SAUS45 KREV 242157
MTRDRA
METAR KDRA 242152Z AUTO 20019G26KT 10SM CLR 23/02 A2973 RMK AO2 PK
WND 20033/2130 SLP034 T02280022





000
SAUS45 KREV 242057
MTRDRA
METAR KDRA 242052Z AUTO 20020G29KT 10SM CLR 22/03 A2976 RMK AO2 PK
WND 20029/2052 SLP043 T02220028 58011





000
SAUS45 KREV 242057
MTRDRA
METAR KDRA 242052Z AUTO 20020G29KT 10SM CLR 22/03 A2976 RMK AO2 PK
WND 20029/2052 SLP043 T02220028 58011





000
SAUS45 KREV 241957
MTRDRA
METAR KDRA 241952Z AUTO 21022G30KT 10SM CLR 22/02 A2977 RMK AO2 PK
WND 22030/1952 SLP048 T02170022





000
SAUS45 KREV 241857
MTRDRA
METAR KDRA 241852Z AUTO 22022G30KT 10SM FEW120 21/04 A2979 RMK AO2
PK WND 21031/1842 SLP052 T02060039





000
SAUS45 KREV 241757
MTRDRA
METAR KDRA 241752Z AUTO 22021G27KT 10SM CLR 19/04 A2979 RMK AO2 PK
WND 24029/1735 SLP055 T01940044 10194 20106 58002





000
SAUS45 KREV 241757
MTRDRA
METAR KDRA 241752Z AUTO 22021G27KT 10SM CLR 19/04 A2979 RMK AO2 PK
WND 24029/1735 SLP055 T01940044 10194 20106 58002





000
SAUS45 KREV 241657
MTRDRA
METAR KDRA 241652Z AUTO 25016G23KT 10SM CLR 18/04 A2980 RMK AO2
SLP059 T01780044





000
SAUS45 KREV 241657
MTRDRA
METAR KDRA 241652Z AUTO 25016G23KT 10SM CLR 18/04 A2980 RMK AO2
SLP059 T01780044





000
SAUS45 KREV 241558
MTRDRA
METAR KDRA 241552Z AUTO 24012KT 10SM SCT100 16/04 A2981 RMK AO2
SLP062 T01560044





000
SAUS45 KREV 241457
MTRDRA
METAR KDRA 241452Z AUTO 00000KT 10SM BKN100 14/03 A2980 RMK AO2
SLP060 T01440028 53011





000
SAUS45 KREV 241257
MTRDRA
METAR KDRA 241252Z AUTO 06003KT 10SM FEW120 11/01 A2977 RMK AO2
SLP051 T01110006





000
SAUS45 KREV 241257
MTRDRA
METAR KDRA 241252Z AUTO 06003KT 10SM FEW120 11/01 A2977 RMK AO2
SLP051 T01110006





000
SAUS45 KREV 241157
MTRDRA
METAR KDRA 241152Z AUTO 11004KT 10SM BKN120 11/00 A2976 RMK AO2
SLP045 T01110000 10161 20111 53002





000
SAUS45 KREV 241157
MTRDRA
METAR KDRA 241152Z AUTO 11004KT 10SM BKN120 11/00 A2976 RMK AO2
SLP045 T01110000 10161 20111 53002





000
SAUS45 KREV 241057
MTRDRA
METAR KDRA 241052Z AUTO 00000KT 10SM CLR 11/00 A2976 RMK AO2 SLP046
T01110000





000
SAUS45 KREV 241057
MTRDRA
METAR KDRA 241052Z AUTO 00000KT 10SM CLR 11/00 A2976 RMK AO2 SLP046
T01110000





000
SAUS45 KREV 240957
MTRDRA
METAR KDRA 240952Z AUTO 06003KT 10SM CLR 12/01 A2975 RMK AO2 SLP042
T01170006





000
SAUS45 KREV 240857
MTRDRA
METAR KDRA 240852Z AUTO 04006KT 10SM CLR 12/00 A2976 RMK AO2 SLP043
T01220000 58009





000
SAUS45 KREV 240857
MTRDRA
METAR KDRA 240852Z AUTO 04006KT 10SM CLR 12/00 A2976 RMK AO2 SLP043
T01220000 58009





000
SAUS45 KREV 240757
MTRDRA
METAR KDRA 240752Z AUTO 10006KT 10SM CLR 13/01 A2977 RMK AO2 SLP048
T01280006 402440072





000
SAUS45 KREV 240657
MTRDRA
METAR KDRA 240652Z AUTO 21009KT 10SM CLR 16/01 A2978 RMK AO2 SLP050
T01610011





000
SAUS45 KREV 240657
MTRDRA
METAR KDRA 240652Z AUTO 21009KT 10SM CLR 16/01 A2978 RMK AO2 SLP050
T01610011





000
SAUS45 KREV 240556
MTRDRA
METAR KDRA 240552Z AUTO 22012KT 10SM CLR 16/02 A2979 RMK AO2 SLP052
T01610017 10228 20161 50010





000
SAUS45 KREV 240556
MTRDRA
METAR KDRA 240552Z AUTO 22012KT 10SM CLR 16/02 A2979 RMK AO2 SLP052
T01610017 10228 20161 50010





000
SAUS45 KREV 240457
MTRDRA
METAR KDRA 240452Z AUTO 23015KT 10SM CLR 17/02 A2979 RMK AO2 SLP054
T01670017





000
SAUS45 KREV 240357
MTRDRA
METAR KDRA 240352Z AUTO 19013G20KT 10SM CLR 17/01 A2977 RMK AO2
SLP051 T01720006





000
SAUS45 KREV 240257
MTRDRA
METAR KDRA 240252Z AUTO 20011G16KT 10SM CLR 18/M01 A2975 RMK AO2
SLP046 T01831006 53006





000
SAUS45 KREV 240257
MTRDRA
METAR KDRA 240252Z AUTO 20011G16KT 10SM CLR 18/M01 A2975 RMK AO2
SLP046 T01831006 53006





000
SAUS45 KREV 240157
MTRDRA
METAR KDRA 240152Z AUTO 19014KT 10SM FEW095 20/M01 A2974 RMK AO2
SLP042 T02001011





000
SAUS45 KREV 240057
MTRDRA
METAR KDRA 240052Z AUTO 19015G20KT 10SM BKN110 22/M01 A2974 RMK AO2
SLP043 T02171006





000
SAUS45 KREV 240057
MTRDRA
METAR KDRA 240052Z AUTO 19015G20KT 10SM BKN110 22/M01 A2974 RMK AO2
SLP043 T02171006





000
SAUS45 KREV 232357
MTRDRA
METAR KDRA 232352Z AUTO 21011G20KT 10SM CLR 23/M03 A2973 RMK AO2
SLP038 T02281028 10244 20200 56015





000
SAUS45 KREV 232357
MTRDRA
METAR KDRA 232352Z AUTO 21011G20KT 10SM CLR 23/M03 A2973 RMK AO2
SLP038 T02281028 10244 20200 56015





000
SAUS45 KREV 232257
MTRDRA
METAR KDRA 232252Z AUTO 25011G22KT 10SM BKN095 23/M03 A2974 RMK AO2
SLP041 T02331033





000
SAUS45 KREV 232157
MTRDRA
METAR KDRA 232152Z AUTO 14007KT 100V170 10SM CLR 23/M04 A2976 RMK
AO2 SLP044 T02281039





000
SAUS45 KREV 232057
MTRDRA
METAR KDRA 232052Z AUTO 31005KT 10SM FEW095 22/M03 A2978 RMK AO2
SLP055 T02221033 58019





000
SAUS45 KREV 231957
MTRDRA
METAR KDRA 231952Z AUTO 28010G18KT 10SM SCT080 22/M01 A2980 RMK AO2
SLP061 T02221011





000
SAUS45 KREV 231857
MTRDRA
METAR KDRA 231852Z AUTO 21010G17KT 10SM CLR 21/M01 A2983 RMK AO2
SLP069 T02111011





000
SAUS45 KREV 231757
MTRDRA
METAR KDRA 231752Z AUTO 22012G17KT 10SM CLR 20/M01 A2984 RMK AO2
SLP075 T02001006 10206 20078 50000





000
SAUS45 KREV 231657
MTRDRA
METAR KDRA 231652Z AUTO 22007KT 10SM CLR 19/00 A2985 RMK AO2 SLP075
T01890000





000
SAUS45 KREV 231657
MTRDRA
METAR KDRA 231652Z AUTO 22007KT 10SM CLR 19/00 A2985 RMK AO2 SLP075
T01890000





000
SAUS45 KREV 231557
MTRDRA
METAR KDRA 231552Z AUTO 00000KT 10SM SCT090 BKN110 15/01 A2984 RMK
AO2 SLP077 T01500006





000
SAUS45 KREV 231457
MTRDRA
METAR KDRA 231452Z AUTO 34003KT 10SM OVC100 12/01 A2984 RMK AO2
SLP079 T01220011 53009





    US Dept of Commerce
    National Oceanic and Atmospheric Administration
    National Weather Service
    1325 East West Highway
    Silver Spring, MD 20910
    Page Author: NWS Internet Services Team
Disclaimer
Information Quality
Credits
Glossary
Privacy Policy
Freedom of Information Act (FOIA)
About Us
Career Opportunities